Time;durP1;ratioP1;P1;durP2;ratioP2;P2;SDS_P1;SDS_P2;PMS_P1;PMS_P2;Temp;Humidity;BMP_temperature;BMP_pressure;BME280_temperature;BME280_humidity;BME280_pressure;Samples;Min_cycle;Max_cycle;Signal;HPM_P1;HPM_P2
2022/09/23 00:00:47;;;;;;;2.72;2.50;;;;;;;11.62;73.81;99212.91;1782113;80;20953;-44
2022/09/23 00:03:15;;;;;;;2.70;2.50;;;;;;;11.60;73.66;99210.38;1782073;80;21099;-44
2022/09/23 00:05:42;;;;;;;4.00;2.27;;;;;;;11.61;73.68;99207.30;1782379;80;21471;-44
2022/09/23 00:08:10;;;;;;;2.80;2.60;;;;;;;11.66;73.58;99206.19;1782045;80;21222;-43
2022/09/23 00:10:38;;;;;;;3.58;2.80;;;;;;;11.64;73.61;99200.34;1779281;80;21005;-43
2022/09/23 00:13:05;;;;;;;5.17;3.00;;;;;;;11.59;73.54;99203.38;1773492;80;20957;-43
2022/09/23 00:15:38;;;;;;;4.47;2.98;;;;;;;11.53;73.75;99204.84;1773882;80;21562;-44
2022/09/23 00:18:07;;;;;;;3.52;2.55;;;;;;;11.50;73.89;99198.23;1773820;80;21052;-44
2022/09/23 00:20:35;;;;;;;3.72;2.52;;;;;;;11.57;73.83;99198.30;1773766;80;21144;-44
2022/09/23 00:23:02;;;;;;;4.53;3.00;;;;;;;11.58;73.82;99189.02;1773727;80;21025;-44
2022/09/23 00:25:28;;;;;;;2.85;2.55;;;;;;;11.55;73.89;99187.05;1773629;80;20961;-44
2022/09/23 00:27:57;;;;;;;3.60;2.83;;;;;;;11.53;73.98;99185.27;1773911;80;21020;-44
2022/09/23 00:30:25;;;;;;;4.67;2.87;;;;;;;11.50;74.04;99183.88;1773898;80;21103;-44
2022/09/23 00:32:52;;;;;;;5.08;2.90;;;;;;;11.43;74.04;99177.77;1773813;80;21141;-44
2022/09/23 00:35:19;;;;;;;6.08;3.50;;;;;;;11.44;74.21;99177.98;1773740;80;21302;-44
2022/09/23 00:37:45;;;;;;;5.90;3.58;;;;;;;11.47;74.34;99177.27;1773745;80;21569;-44
2022/09/23 00:40:12;;;;;;;3.75;3.08;;;;;;;11.49;74.46;99180.38;1773531;80;21546;-44
2022/09/23 00:42:47;;;;;;;3.60;3.25;;;;;;;11.47;74.35;99171.84;1773865;80;21025;-43
2022/09/23 00:45:15;;;;;;;4.62;3.27;;;;;;;11.43;74.25;99170.20;1773452;80;21877;-43
2022/09/23 00:47:57;;;;;;;3.30;3.00;;;;;;;11.45;74.47;99172.77;1773636;80;21001;-43
2022/09/23 00:50:34;;;;;;;3.98;3.55;;;;;;;11.49;74.45;99179.02;1772942;80;21549;-43
2022/09/23 00:53:04;;;;;;;5.00;3.67;;;;;;;11.45;74.55;99163.27;1773665;80;21005;-43
2022/09/23 00:55:38;;;;;;;6.95;3.70;;;;;;;11.43;74.61;99173.70;1773514;80;21100;-43
2022/09/23 00:58:06;;;;;;;4.28;3.85;;;;;;;11.41;74.60;99169.23;1773832;80;21154;-44
2022/09/23 01:00:34;;;;;;;8.53;4.53;;;;;;;11.45;74.72;99170.63;1773580;80;21024;-44
2022/09/23 01:03:01;;;;;;;4.60;4.10;;;;;;;11.46;74.68;99169.48;1773560;80;21295;-44
2022/09/23 01:05:28;;;;;;;7.25;4.30;;;;;;;11.44;74.87;99169.84;1773470;80;20986;-44
2022/09/23 01:07:56;;;;;;;4.95;4.37;;;;;;;11.41;74.90;99173.30;1773564;80;21025;-44
2022/09/23 01:10:23;;;;;;;4.00;3.60;;;;;;;11.38;74.89;99167.23;1773295;80;21175;-44
2022/09/23 01:13:17;;;;;;;5.58;4.03;;;;;;;11.37;74.99;99170.34;1773402;80;21563;-44
2022/09/23 01:15:48;;;;;;;4.87;4.37;;;;;;;11.43;75.21;99172.34;1773477;80;21035;-44
2022/09/23 01:18:47;;;;;;;5.35;4.40;;;;;;;11.45;75.21;99174.12;1772762;80;20921;-44
2022/09/23 01:21:40;;;;;;;5.12;4.03;;;;;;;11.46;75.11;99164.84;1772953;80;20998;-44
2022/09/23 01:26:02;;;;;;;5.75;4.12;;;;;;;11.54;74.97;99163.77;1840843;78;22710;-43
2022/09/23 01:28:55;;;;;;;6.95;4.78;;;;;;;11.47;74.96;99164.27;1816198;79;20954;-44
2022/09/23 01:31:48;;;;;;;7.97;4.95;;;;;;;11.42;75.07;99165.38;1816283;79;21088;-44
2022/09/23 01:34:32;;;;;;;6.30;4.37;;;;;;;11.37;75.40;99164.34;1816205;79;20964;-44
2022/09/23 01:37:14;;;;;;;6.15;4.28;;;;;;;11.41;75.32;99171.16;1754519;79;21008;-44
2022/09/23 01:40:04;;;;;;;6.10;4.60;;;;;;;11.42;75.32;99169.45;1816278;79;20913;-44
2022/09/23 01:42:40;;;;;;;7.95;4.80;;;;;;;11.42;75.43;99162.66;1815565;79;20956;-44
2022/09/23 01:45:21;;;;;;;5.80;5.20;;;;;;;11.42;75.59;99164.02;1815618;79;21791;-44
2022/09/23 01:48:18;;;;;;;6.22;4.50;;;;;;;11.46;75.59;99164.05;1816201;79;20952;-44
2022/09/23 01:50:58;;;;;;;6.42;4.20;;;;;;;11.48;75.47;99162.52;1816108;79;20913;-44
2022/09/23 01:53:49;;;;;;;5.60;4.10;;;;;;;11.53;75.32;99160.84;1815268;79;21081;-44
2022/09/23 01:56:35;;;;;;;6.45;4.28;;;;;;;11.54;75.35;99158.33;1816167;79;20996;-44
2022/09/23 01:59:20;;;;;;;5.30;4.05;;;;;;;11.53;75.40;99157.33;1815206;79;23233;-44
2022/09/23 02:01:55;;;;;;;6.72;4.00;;;;;;;11.50;75.40;99153.44;1815916;79;21552;-44
2022/09/23 02:04:39;;;;;;;6.12;3.70;;;;;;;11.49;75.31;99155.94;1812012;79;20988;-44
2022/09/23 02:07:25;;;;;;;6.25;3.70;;;;;;;11.53;75.26;99151.91;1815946;79;20977;-43
2022/09/23 02:09:59;;;;;;;5.12;4.28;;;;;;;11.52;75.27;99153.84;1816005;79;21025;-44
2022/09/23 02:12:28;;;;;;;5.60;3.70;;;;;;;11.47;75.27;99156.91;1815151;79;21143;-44
2022/09/23 02:15:14;;;;;;;3.95;3.60;;;;;;;11.41;75.43;99154.30;1815878;79;20965;-44
2022/09/23 02:17:51;;;;;;;5.60;3.65;;;;;;;11.46;75.51;99154.55;1811517;79;20992;-44
2022/09/23 02:20:22;;;;;;;6.00;3.95;;;;;;;11.50;75.14;99156.73;1816047;79;20999;-44
2022/09/23 02:23:15;;;;;;;5.20;3.83;;;;;;;11.49;75.24;99154.59;1816332;78;21255;-44
2022/09/23 02:26:08;;;;;;;5.10;3.85;;;;;;;11.49;75.25;99161.95;1798415;79;21519;-44
2022/09/23 02:28:55;;;;;;;4.03;3.40;;;;;;;11.43;75.37;99153.34;1770012;79;21550;-44
2022/09/23 02:31:40;;;;;;;5.33;3.25;;;;;;;11.42;75.33;99151.80;1797460;79;20918;-44
2022/09/23 02:34:22;;;;;;;6.42;3.40;;;;;;;11.50;75.31;99152.09;1797732;79;21573;-44
2022/09/23 02:37:13;;;;;;;6.60;3.35;;;;;;;11.53;75.27;99154.05;1777159;79;21072;-43
2022/09/23 02:39:48;;;;;;;3.87;3.15;;;;;;;11.54;75.19;99155.62;1791316;79;21143;-44
2022/09/23 02:42:20;;;;;;;4.55;3.10;;;;;;;11.46;75.07;99151.27;1797086;79;21021;-44
2022/09/23 02:44:47;;;;;;;4.05;3.00;;;;;;;11.43;75.11;99149.27;1797134;79;21001;-44
2022/09/23 02:47:14;;;;;;;3.67;3.02;;;;;;;11.48;75.09;99154.37;1766151;79;20996;-44
2022/09/23 02:49:40;;;;;;;5.22;2.98;;;;;;;11.52;75.00;99151.72;1797220;79;21072;-44
2022/09/23 02:52:07;;;;;;;4.10;2.95;;;;;;;11.51;75.01;99156.94;1797185;79;22031;-44
2022/09/23 02:54:34;;;;;;;2.87;2.65;;;;;;;11.49;74.95;99155.94;1797114;79;21001;-44
2022/09/23 02:57:04;;;;;;;3.10;2.80;;;;;;;11.47;74.88;99151.48;1797410;79;21008;-44
2022/09/23 02:59:32;;;;;;;3.72;2.80;;;;;;;11.48;74.89;99153.02;1797220;79;21076;-44
2022/09/23 03:02:25;;;;;;;4.25;2.92;;;;;;;11.52;74.95;99155.80;1797246;79;21029;-44
2022/09/23 03:05:26;;;;;;;5.47;3.15;;;;;;;11.51;75.03;99156.38;1796951;79;21232;-44
2022/09/23 03:08:31;;;;;;;5.15;3.10;;;;;;;11.47;74.96;99158.27;1766913;79;20973;-44
2022/09/23 03:11:12;;;;;;;4.40;2.70;;;;;;;11.47;74.98;99157.48;1797084;79;20922;-43
2022/09/23 03:14:03;;;;;;;3.42;3.12;;;;;;;11.46;75.10;99156.70;1796872;79;21009;-43
2022/09/23 03:16:46;;;;;;;3.15;2.85;;;;;;;11.44;75.06;99158.98;1792596;79;20986;-43
2022/09/23 03:19:25;;;;;;;3.25;2.95;;;;;;;11.34;75.33;99159.63;1796855;79;21227;-43
2022/09/23 03:22:29;;;;;;;3.00;2.70;;;;;;;11.28;75.63;99155.10;1797025;79;21064;-44
2022/09/23 03:25:00;;;;;;;2.80;2.50;;;;;;;11.26;75.64;99151.20;1804528;79;20961;-44
2022/09/23 03:27:28;;;;;;;3.67;2.90;;;;;;;11.27;75.68;99158.20;1813294;79;21080;-44
2022/09/23 03:29:55;;;;;;;5.80;3.08;;;;;;;11.26;75.80;99153.34;1813472;79;21519;-44
2022/09/23 03:32:25;;;;;;;5.22;3.30;;;;;;;11.23;75.82;99154.67;1813543;79;21234;-44
2022/09/23 03:34:54;;;;;;;;;;;;;;;11.18;75.98;99156.34;1816158;79;20961;-44
2022/09/23 03:37:38;;;;;;;4.90;2.60;;;;;;;11.13;76.04;99162.87;1813304;79;20094;-44
2022/09/23 03:40:16;;;;;;;3.50;2.95;;;;;;;11.09;76.25;99162.02;1813486;79;21203;-44
2022/09/23 03:42:43;;;;;;;4.58;3.27;;;;;;;11.10;76.34;99156.81;1813383;79;21021;-44
2022/09/23 03:45:17;;;;;;;4.92;2.40;;;;;;;11.08;76.53;99160.48;1813439;79;21236;-44
2022/09/23 03:47:41;;;;;;;3.65;2.47;;;;;;;11.06;76.58;99157.34;1813095;79;20948;-44
2022/09/23 03:50:09;;;;;;;3.10;2.50;;;;;;;11.08;76.59;99152.91;1813238;79;20992;-43
2022/09/23 03:52:38;;;;;;;2.72;2.52;;;;;;;11.15;76.51;99143.50;1813376;79;20933;-43
2022/09/23 03:55:07;;;;;;;2.80;2.60;;;;;;;11.18;76.30;99147.61;1813347;78;20997;-43
2022/09/23 03:57:35;;;;;;;2.90;2.65;;;;;;;11.15;76.38;99141.56;1813612;79;21823;-43
2022/09/23 04:00:05;;;;;;;8.98;2.47;;;;;;;11.15;76.43;99146.21;1813596;79;21239;-43
2022/09/23 04:02:34;;;;;;;3.02;2.55;;;;;;;11.17;76.30;99144.70;1812751;79;21003;-43
2022/09/23 04:05:01;;;;;;;3.60;2.33;;;;;;;11.23;76.13;99149.24;1813521;79;21383;-44
2022/09/23 04:07:28;;;;;;;2.95;2.65;;;;;;;11.23;76.07;99150.59;1813491;79;21037;-44
2022/09/23 04:09:55;;;;;;;2.70;2.50;;;;;;;11.17;76.15;99152.84;1813693;79;21129;-44
2022/09/23 04:12:23;;;;;;;3.42;2.92;;;;;;;11.14;76.41;99153.56;1813431;79;20914;-44
2022/09/23 04:14:50;;;;;;;3.12;2.17;;;;;;;11.15;76.20;99146.21;1813703;79;21016;-44
2022/09/23 04:17:17;;;;;;;2.40;2.20;;;;;;;11.15;76.23;99146.99;1813270;79;21593;-44
2022/09/23 04:19:44;;;;;;;3.17;2.50;;;;;;;11.21;76.18;99146.10;1813387;79;21004;-44
2022/09/23 04:22:11;;;;;;;6.75;2.65;;;;;;;11.17;76.20;99147.99;1813368;79;21242;-44
2022/09/23 04:24:38;;;;;;;2.25;2.05;;;;;;;11.12;76.18;99150.45;1811503;79;20993;-44
2022/09/23 04:27:05;;;;;;;3.75;2.62;;;;;;;11.11;76.26;99157.02;1804150;79;20961;-44
2022/09/23 04:29:31;;;;;;;2.65;2.30;;;;;;;11.15;76.21;99146.21;1804214;79;21025;-43
2022/09/23 04:32:00;;;;;;;4.75;2.70;;;;;;;11.19;76.02;99148.39;1804157;79;21077;-43
2022/09/23 04:34:27;;;;;;;3.47;3.00;;;;;;;11.15;76.09;99152.99;1804231;79;21104;-43
2022/09/23 04:36:54;;;;;;;3.15;2.60;;;;;;;11.11;76.15;99149.45;1804065;79;21011;-43
2022/09/23 04:39:21;;;;;;;3.65;2.52;;;;;;;11.12;76.17;99145.59;1804149;79;21016;-43
2022/09/23 04:41:48;;;;;;;4.05;2.67;;;;;;;11.16;76.06;99149.14;1804246;79;21017;-44
2022/09/23 04:44:15;;;;;;;3.37;2.62;;;;;;;11.23;76.04;99142.45;1804222;79;21021;-44
2022/09/23 04:46:42;;;;;;;3.47;2.60;;;;;;;11.24;76.04;99141.28;1804172;79;21240;-44
2022/09/23 04:49:09;;;;;;;5.50;2.70;;;;;;;11.24;75.97;99147.50;1804188;79;20965;-44
2022/09/23 04:51:36;;;;;;;4.22;2.67;;;;;;;11.25;75.88;99142.85;1804322;79;20882;-44
2022/09/23 04:54:03;;;;;;;5.37;2.90;;;;;;;11.29;75.91;99148.53;1804484;79;21767;-44
2022/09/23 04:56:33;;;;;;;3.65;2.50;;;;;;;11.33;75.77;99149.92;1804286;79;21002;-44
2022/09/23 04:59:04;;;;;;;3.08;2.60;;;;;;;11.31;75.73;99147.59;1804289;79;21188;-44
2022/09/23 05:01:30;;;;;;;5.28;2.12;;;;;;;11.28;75.52;99145.60;1803353;79;21033;-44
2022/09/23 05:04:02;;;;;;;3.30;2.30;;;;;;;11.27;75.58;99150.84;1804548;79;21009;-44
2022/09/23 05:06:30;;;;;;;2.62;2.17;;;;;;;11.32;75.60;99154.59;1804132;79;20910;-43
2022/09/23 05:08:57;;;;;;;2.42;2.20;;;;;;;11.36;75.39;99151.91;1804565;79;21072;-43
2022/09/23 05:11:25;;;;;;;2.92;2.20;;;;;;;11.32;75.25;99153.23;1804423;79;21169;-43
2022/09/23 05:13:53;;;;;;;2.30;2.10;;;;;;;11.34;75.56;99150.92;1804303;79;21004;-44
2022/09/23 05:16:22;;;;;;;2.00;1.80;;;;;;;11.44;75.44;99156.27;1804402;79;20981;-44
2022/09/23 05:18:48;;;;;;;1.75;1.50;;;;;;;11.53;75.08;99150.55;1804692;79;21483;-44
2022/09/23 05:21:18;;;;;;;2.15;1.90;;;;;;;11.55;74.57;99147.69;1804522;79;22237;-44
2022/09/23 05:23:53;;;;;;;2.70;1.57;;;;;;;11.53;74.29;99154.63;1804904;79;21091;-44
2022/09/23 05:26:24;;;;;;;4.22;1.75;;;;;;;11.51;74.31;99156.38;1804161;79;21009;-44
2022/09/23 05:28:51;;;;;;;2.10;1.90;;;;;;;11.48;74.24;99151.66;1804995;79;20969;-44
2022/09/23 05:31:20;;;;;;;2.33;1.60;;;;;;;11.51;74.38;99155.02;1804174;79;21013;-44
2022/09/23 05:33:53;;;;;;;1.70;1.60;;;;;;;11.61;74.10;99157.07;1804355;79;21068;-44
2022/09/23 05:36:20;;;;;;;2.35;1.55;;;;;;;11.66;73.89;99152.67;1804495;79;21083;-44
2022/09/23 05:38:48;;;;;;;2.05;1.85;;;;;;;11.65;73.67;99156.53;1804444;79;21555;-44
2022/09/23 05:41:16;;;;;;;1.92;1.50;;;;;;;11.62;73.55;99148.32;1804087;79;21008;-44
2022/09/23 05:43:43;;;;;;;2.37;1.22;;;;;;;11.58;73.56;99147.50;1804502;79;21041;-43
2022/09/23 05:46:16;;;;;;;1.40;1.30;;;;;;;11.57;73.72;99152.75;1804146;79;21037;-43
2022/09/23 05:48:47;;;;;;;1.50;1.40;;;;;;;11.67;73.69;99159.64;1804433;79;21073;-43
2022/09/23 05:51:21;;;;;;;1.57;1.43;;;;;;;11.76;73.48;99157.44;1803146;79;21490;-43
2022/09/23 05:53:51;;;;;;;1.57;1.42;;;;;;;11.79;73.17;99163.29;1804433;79;21543;-43
2022/09/23 05:56:22;;;;;;;1.70;1.20;;;;;;;11.73;72.79;99159.55;1804238;79;20918;-44
2022/09/23 05:58:50;;;;;;;1.75;1.35;;;;;;;11.69;72.71;99159.28;1804714;79;21029;-44
2022/09/23 06:01:26;;;;;;;1.55;1.30;;;;;;;11.67;72.92;99154.20;1804261;79;21230;-44
2022/09/23 06:03:52;;;;;;;1.65;1.50;;;;;;;11.73;72.97;99158.19;1803360;79;20977;-44
2022/09/23 06:06:31;;;;;;;1.32;1.22;;;;;;;11.70;73.01;99156.77;1804143;79;21531;-44
2022/09/23 06:08:59;;;;;;;1.40;1.30;;;;;;;11.69;73.21;99156.56;1803578;79;21572;-44
2022/09/23 06:11:29;;;;;;;3.50;1.30;;;;;;;11.69;73.02;99160.06;1804336;79;21541;-44
2022/09/23 06:14:00;;;;;;;1.40;1.27;;;;;;;11.75;73.14;99159.97;1804660;79;21073;-44
2022/09/23 06:16:32;;;;;;;1.90;1.37;;;;;;;11.86;72.98;99166.09;1804283;79;21351;-44
2022/09/23 06:19:04;;;;;;;1.25;1.15;;;;;;;11.90;72.62;99161.48;1804849;79;25923;-44
2022/09/23 06:21:31;;;;;;;1.40;1.20;;;;;;;11.94;72.46;99163.08;1804562;79;21012;-44
2022/09/23 06:24:01;;;;;;;3.10;1.40;;;;;;;11.93;71.74;99158.00;1804752;79;20997;-44
2022/09/23 06:26:32;;;;;;;2.30;1.30;;;;;;;11.89;71.71;99163.41;1799415;79;21492;-44
2022/09/23 06:28:58;;;;;;;1.77;1.57;;;;;;;11.91;71.78;99164.41;1797094;79;21011;-44
2022/09/23 06:31:25;;;;;;;2.47;1.50;;;;;;;11.94;71.83;99171.22;1792557;79;20998;-44
2022/09/23 06:33:52;;;;;;;1.65;1.50;;;;;;;11.96;71.91;99170.83;1789604;79;21500;-44
2022/09/23 06:36:19;;;;;;;1.60;1.50;;;;;;;11.97;71.73;99171.83;1789257;80;21504;-44
2022/09/23 06:38:49;;;;;;;1.52;1.42;;;;;;;12.00;71.78;99168.38;1789247;80;21063;-44
2022/09/23 06:41:16;;;;;;;;;;;;;;;12.07;71.58;99167.65;1792072;79;21001;-44
2022/09/23 06:43:43;;;;;;;1.40;1.20;;;;;;;12.13;71.02;99164.80;1789236;80;20145;-44
2022/09/23 06:46:14;;;;;;;3.90;1.40;;;;;;;12.06;71.25;99170.16;1788986;80;21579;-44
2022/09/23 06:48:42;;;;;;;1.30;1.20;;;;;;;12.09;71.16;99169.43;1789175;80;21050;-43
2022/09/23 06:51:12;;;;;;;3.37;1.27;;;;;;;12.11;71.25;99169.82;1789248;79;21079;-43
2022/09/23 06:53:38;;;;;;;;;;;;;;;12.12;71.33;99174.11;1791773;80;21485;-43
2022/09/23 06:56:07;;;;;;;1.22;1.12;;;;;;;12.15;71.40;99168.70;1789117;80;20117;-43
2022/09/23 06:58:35;;;;;;;2.05;1.50;;;;;;;12.19;71.16;99171.47;1789098;80;21039;-43
2022/09/23 07:01:09;;;;;;;3.65;1.45;;;;;;;12.22;71.24;99169.34;1789454;79;21493;-43
2022/09/23 07:03:38;;;;;;;1.50;1.40;;;;;;;12.28;71.28;99165.72;1789217;80;21215;-43
2022/09/23 07:06:06;;;;;;;1.70;1.60;;;;;;;12.27;70.86;99167.65;1789104;79;20915;-43
2022/09/23 07:08:34;;;;;;;1.35;1.25;;;;;;;12.25;70.78;99165.12;1789081;80;20989;-43
2022/09/23 07:11:04;;;;;;;1.65;1.32;;;;;;;12.23;70.70;99164.13;1789256;80;20999;-43
2022/09/23 07:13:32;;;;;;;1.98;1.30;;;;;;;12.26;70.66;99167.44;1789139;79;21073;-44
2022/09/23 07:16:00;;;;;;;3.27;1.32;;;;;;;12.29;71.02;99165.92;1789331;80;21781;-44
2022/09/23 07:18:32;;;;;;;1.60;1.50;;;;;;;12.34;70.91;99165.00;1789039;79;20947;-44
2022/09/23 07:21:14;;;;;;;1.98;1.70;;;;;;;12.36;70.37;99162.67;1789395;80;20971;-44
2022/09/23 07:23:46;;;;;;;1.65;1.37;;;;;;;12.34;70.12;99162.29;1789098;80;21039;-43
2022/09/23 07:26:14;;;;;;;1.27;1.17;;;;;;;12.36;69.92;99165.39;1787455;79;21776;-44
2022/09/23 07:28:40;;;;;;;2.33;1.30;;;;;;;12.43;69.86;99165.47;1786139;80;21208;-44
2022/09/23 07:31:11;;;;;;;1.20;1.10;;;;;;;12.50;70.01;99157.35;1793823;79;20996;-44
2022/09/23 07:33:42;;;;;;;3.85;1.60;;;;;;;12.60;69.96;99156.66;1804547;79;21002;-44
2022/09/23 07:36:12;;;;;;;1.57;1.42;;;;;;;12.66;69.14;99150.28;1804638;79;21657;-44
2022/09/23 07:38:40;;;;;;;3.20;1.20;;;;;;;12.66;69.36;99148.92;1804560;79;21072;-43
2022/09/23 07:41:09;;;;;;;1.70;1.35;;;;;;;12.73;68.97;99147.60;1804515;79;21125;-43
2022/09/23 07:43:38;;;;;;;1.25;1.15;;;;;;;12.77;67.90;99153.09;1804506;79;21057;-43
2022/09/23 07:46:09;;;;;;;1.42;1.30;;;;;;;12.80;67.96;99141.44;1804106;79;21691;-43
2022/09/23 07:48:36;;;;;;;2.70;1.20;;;;;;;12.83;67.49;99150.22;1804420;79;21029;-43
2022/09/23 07:51:12;;;;;;;1.40;1.30;;;;;;;12.83;67.83;99140.70;1804347;79;21009;-43
2022/09/23 07:53:39;;;;;;;3.22;1.40;;;;;;;12.90;67.85;99144.80;1804170;79;21284;-43
2022/09/23 07:56:06;;;;;;;5.92;1.55;;;;;;;12.93;67.40;99139.95;1804170;79;20894;-43
2022/09/23 07:58:33;;;;;;;1.37;1.12;;;;;;;12.85;66.86;99142.44;1804222;79;21024;-44
2022/09/23 08:01:07;;;;;;;1.75;1.30;;;;;;;12.76;66.83;99144.72;1804285;79;20998;-44
2022/09/23 08:03:35;;;;;;;2.85;1.27;;;;;;;12.69;67.56;99144.66;1804282;79;20994;-44
2022/09/23 08:06:08;;;;;;;3.72;1.22;;;;;;;12.63;68.17;99144.25;1804184;79;21115;-44
2022/09/23 08:08:39;;;;;;;1.60;1.30;;;;;;;12.61;68.61;99144.62;1804250;79;20945;-44
2022/09/23 08:11:07;;;;;;;1.22;1.12;;;;;;;12.64;69.03;99141.72;1804614;79;26547;-44
2022/09/23 08:13:34;;;;;;;1.10;0.88;;;;;;;12.68;68.96;99141.76;1804253;79;21072;-44
2022/09/23 08:16:01;;;;;;;1.40;1.27;;;;;;;12.72;68.66;99139.27;1804244;79;21072;-44
2022/09/23 08:18:29;;;;;;;1.10;1.00;;;;;;;12.69;68.66;99141.94;1804253;79;21203;-44
2022/09/23 08:20:56;;;;;;;1.90;1.15;;;;;;;12.60;68.72;99140.91;1804082;79;21486;-44
2022/09/23 08:23:23;;;;;;;2.67;1.30;;;;;;;12.56;69.30;99140.89;1804164;79;21268;-44
2022/09/23 08:25:59;;;;;;;2.08;1.25;;;;;;;12.58;69.10;99135.09;1802981;79;21729;-44
2022/09/23 08:28:26;;;;;;;1.50;1.30;;;;;;;12.64;69.17;99134.91;1796964;79;21468;-43
2022/09/23 08:30:54;;;;;;;1.62;1.50;;;;;;;12.74;68.67;99127.98;1797026;79;23159;-43
2022/09/23 08:33:20;;;;;;;1.95;1.70;;;;;;;12.88;68.83;99126.13;1796813;79;20989;-43
2022/09/23 08:35:47;;;;;;;1.70;1.47;;;;;;;13.10;68.81;99131.13;1797174;79;21074;-43
2022/09/23 08:38:14;;;;;;;1.87;1.77;;;;;;;13.29;67.72;99118.59;1797247;79;21472;-43
2022/09/23 08:40:43;;;;;;;1.65;1.50;;;;;;;13.46;67.90;99119.81;1797032;79;20978;-44
2022/09/23 08:43:26;;;;;;;1.72;1.62;;;;;;;13.64;66.38;99116.58;1797157;79;21767;-44
2022/09/23 08:45:54;;;;;;;2.47;1.77;;;;;;;13.80;65.88;99120.30;1796674;79;20989;-44
2022/09/23 08:48:34;;;;;;;2.10;1.90;;;;;;;13.88;65.18;99121.30;1796846;79;21028;-44
2022/09/23 08:51:08;;;;;;;3.72;2.67;;;;;;;13.92;64.74;99111.19;1767084;79;21573;-44
2022/09/23 08:53:36;;;;;;;3.52;2.70;;;;;;;13.96;64.20;99115.27;1796760;79;21013;-44
2022/09/23 08:56:06;;;;;;;3.45;3.10;;;;;;;13.94;63.56;99106.72;1796847;79;21130;-44
2022/09/23 08:59:26;;;;;;;3.40;3.10;;;;;;;13.87;63.38;99106.69;1792799;79;21087;-44
2022/09/23 09:01:59;;;;;;;4.78;2.90;;;;;;;13.79;63.46;99107.28;1796932;79;21084;-44
2022/09/23 09:04:39;;;;;;;2.85;2.52;;;;;;;13.82;63.85;99112.52;1797244;79;20941;-44
2022/09/23 09:07:17;;;;;;;3.20;2.90;;;;;;;14.07;63.92;99103.80;1796898;79;20974;-44
2022/09/23 09:09:59;;;;;;;2.92;2.60;;;;;;;14.43;63.54;99106.53;1796568;79;21202;-43
2022/09/23 09:12:49;;;;;;;3.12;2.83;;;;;;;14.66;59.80;99106.34;1796934;79;21012;-43
2022/09/23 09:15:28;;;;;;;3.33;3.02;;;;;;;14.71;60.73;99106.52;1796801;79;21010;-43
2022/09/23 09:18:09;;;;;;;3.85;2.98;;;;;;;14.61;59.93;99114.14;1796869;79;20973;-43
2022/09/23 09:20:59;;;;;;;3.33;3.00;;;;;;;14.37;60.48;99114.36;1797298;79;21069;-43
2022/09/23 09:23:32;;;;;;;;;;;;;;;14.13;61.51;99111.80;1799749;79;21233;-43
2022/09/23 09:26:00;;;;;;;3.80;3.50;;;;;;;13.89;61.61;99107.09;1798543;79;20134;-43
2022/09/23 09:28:38;;;;;;;3.37;3.02;;;;;;;13.62;63.31;99120.84;1813557;79;21084;-43
2022/09/23 09:31:32;;;;;;;2.98;2.67;;;;;;;13.52;64.12;99117.50;1767972;79;21354;-43
2022/09/23 09:34:22;;;;;;;3.50;3.20;;;;;;;13.47;65.04;99113.98;1813404;79;21029;-43
2022/09/23 09:37:05;;;;;;;4.78;3.10;;;;;;;13.45;65.47;99112.83;1813399;79;21087;-44
2022/09/23 09:39:34;;;;;;;3.25;2.95;;;;;;;13.42;65.91;99118.45;1813127;79;21035;-44
2022/09/23 09:42:02;;;;;;;3.65;3.35;;;;;;;13.40;66.26;99106.39;1813286;79;20917;-44
2022/09/23 09:44:51;;;;;;;3.27;2.47;;;;;;;13.39;66.87;99108.33;1813459;78;21624;-44
2022/09/23 09:47:52;;;;;;;2.65;2.42;;;;;;;13.47;66.25;99110.48;1808351;79;21064;-44
2022/09/23 09:50:50;;;;;;;4.10;2.83;;;;;;;13.56;64.41;99118.28;1813614;78;21573;-44
2022/09/23 09:53:34;;;;;;;2.92;2.62;;;;;;;13.56;63.18;99115.56;1813378;78;21244;-44
2022/09/23 09:56:08;;;;;;;2.90;2.10;;;;;;;13.55;62.61;99110.72;1813367;79;21499;-44
2022/09/23 09:58:46;;;;;;;3.22;2.80;;;;;;;13.56;62.23;99109.53;1806308;79;21511;-44
2022/09/23 10:01:30;;;;;;;4.92;2.62;;;;;;;13.58;61.69;99111.30;1804449;79;20997;-44
2022/09/23 10:04:04;;;;;;;3.30;3.00;;;;;;;13.61;61.91;99110.52;1813848;79;21221;-44
2022/09/23 10:06:33;;;;;;;3.60;2.85;;;;;;;13.62;61.63;99108.00;1810318;79;20953;-44
2022/09/23 10:09:20;;;;;;;;;;;;;;;13.65;61.84;99110.55;1816599;78;20969;-44
2022/09/23 10:12:04;;;;;;;5.47;2.80;;;;;;;13.68;61.54;99101.59;1813668;79;20145;-44
2022/09/23 10:14:32;;;;;;;3.00;2.50;;;;;;;13.61;62.42;99102.93;1806241;79;21657;-44
2022/09/23 10:17:06;;;;;;;3.35;2.60;;;;;;;13.67;62.52;99110.93;1813438;78;21134;-44
2022/09/23 10:19:36;;;;;;;2.85;2.50;;;;;;;13.74;62.53;99109.02;1813301;79;20956;-44
2022/09/23 10:22:08;;;;;;;2.65;2.45;;;;;;;13.77;62.12;99110.17;1813495;79;20957;-44
2022/09/23 10:24:37;;;;;;;4.42;2.50;;;;;;;13.77;62.06;99116.98;1782552;79;21075;-44
2022/09/23 10:27:07;;;;;;;4.55;2.67;;;;;;;13.72;62.44;99126.32;1814294;78;20981;-44
2022/09/23 10:29:49;;;;;;;6.75;2.60;;;;;;;13.67;62.88;99124.55;1815500;79;21096;-44
2022/09/23 10:32:39;;;;;;;4.75;3.20;;;;;;;13.62;63.22;99124.92;1815224;78;20878;-43
2022/09/23 10:35:16;;;;;;;6.53;2.87;;;;;;;13.52;64.04;99129.17;1815749;78;21024;-44
2022/09/23 10:37:49;;;;;;;3.50;3.05;;;;;;;13.41;64.63;99132.44;1814453;79;21000;-44
2022/09/23 10:46:44;;;;;;;3.22;2.92;;;;;;;13.23;66.34;99137.81;1815175;79;20948;-44
2022/09/23 10:49:50;;;;;;;7.67;4.62;;;;;;;13.13;67.11;99139.91;1815830;79;21079;-44
2022/09/23 10:52:37;;;;;;;4.80;3.75;;;;;;;13.11;67.59;99140.07;1815429;79;21595;-44
2022/09/23 10:55:34;;;;;;;2.72;2.33;;;;;;;13.04;67.75;99138.08;1747533;79;21035;-45
2022/09/23 10:58:27;;;;;;;3.58;2.90;;;;;;;12.99;68.06;99140.59;1815638;78;21194;-44
2022/09/23 11:01:17;;;;;;;3.83;2.85;;;;;;;12.99;68.39;99133.78;1815505;78;21585;-44
2022/09/23 11:03:57;;;;;;;4.00;2.00;;;;;;;12.98;68.53;99138.23;1815829;78;20901;-44
2022/09/23 11:06:47;;;;;;;2.70;2.22;;;;;;;12.98;68.34;99134.94;1815038;79;21013;-44
2022/09/23 11:09:40;;;;;;;;;;;;;;;12.94;67.71;99142.30;1818051;79;21012;-44
2022/09/23 11:12:36;;;;;;;2.72;2.12;;;;;;;12.87;67.54;99137.41;1815428;79;21124;-44
2022/09/23 11:15:26;;;;;;;2.35;2.15;;;;;;;12.72;68.12;99132.46;1814355;79;21497;-44
2022/09/23 11:18:04;;;;;;;3.17;2.00;;;;;;;12.74;68.42;99127.98;1796734;79;21091;-43
2022/09/23 11:20:53;;;;;;;2.10;1.90;;;;;;;12.76;68.67;99131.12;1815349;79;21013;-43
2022/09/23 11:23:38;;;;;;;2.95;1.95;;;;;;;12.69;68.39;99136.50;1815456;79;21071;-44
2022/09/23 11:26:46;;;;;;;3.40;2.08;;;;;;;12.53;68.74;99122.63;1815218;79;22149;-44
2022/09/23 11:29:43;;;;;;;3.37;2.20;;;;;;;12.38;68.94;99125.61;1815666;79;21000;-44
2022/09/23 11:32:26;;;;;;;2.20;1.70;;;;;;;12.20;69.14;99122.73;1806765;79;21585;-45
2022/09/23 11:35:02;;;;;;;1.98;1.75;;;;;;;12.17;69.62;99118.05;1815463;79;21017;-44
2022/09/23 11:37:36;;;;;;;2.55;1.98;;;;;;;12.23;70.08;99117.13;1815558;78;21537;-44
2022/09/23 11:40:22;;;;;;;1.90;1.70;;;;;;;12.34;70.41;99122.88;1815411;79;21118;-44
2022/09/23 11:43:17;;;;;;;1.92;1.70;;;;;;;12.40;70.38;99121.34;1801471;79;21456;-44
2022/09/23 11:45:54;;;;;;;2.20;2.00;;;;;;;12.45;70.20;99124.29;1815357;79;20964;-44
2022/09/23 11:49:03;;;;;;;1.67;1.57;;;;;;;12.43;69.40;99127.98;1815728;79;21032;-44
2022/09/23 11:51:36;;;;;;;2.33;1.82;;;;;;;12.42;69.70;99128.55;1775281;79;21087;-44
2022/09/23 11:54:23;;;;;;;1.75;1.65;;;;;;;12.45;69.92;99126.43;1804899;79;21153;-44
2022/09/23 11:56:56;;;;;;;2.00;1.80;;;;;;;12.47;70.28;99126.84;1755147;80;20972;-44
2022/09/23 11:59:53;;;;;;;1.50;1.40;;;;;;;12.47;70.75;99121.98;1783221;80;21596;-44
2022/09/23 12:02:35;;;;;;;3.70;1.98;;;;;;;12.49;70.61;99123.16;1783446;80;21033;-44
2022/09/23 12:05:06;;;;;;;1.65;1.50;;;;;;;12.45;70.89;99125.08;1769462;80;21020;-43
2022/09/23 12:08:18;;;;;;;2.42;1.40;;;;;;;12.57;71.34;99122.64;1783353;80;21486;-43
2022/09/23 12:11:07;;;;;;;1.45;1.35;;;;;;;12.71;70.33;99124.09;1783158;80;20949;-43
2022/09/23 12:14:06;;;;;;;1.90;1.80;;;;;;;12.70;69.58;99123.89;1783469;80;21059;-43
2022/09/23 12:17:04;;;;;;;3.00;1.80;;;;;;;12.56;69.41;99117.78;1783155;80;21019;-43
2022/09/23 12:20:03;;;;;;;1.90;1.77;;;;;;;12.37;70.53;99118.61;1783302;80;21032;-43